Terminal Aerodrome Forecast
Issued by NWS Charleston, WV

Current Version | Previous Version | Graphics & Text | Print | Product List | Glossary On
Versions: 1 2 3 4 5 6 7 8 9 10 11 12 13 14 15 16 17 18 19 20 21 22
000
FTUS41 KRLX 171100
TAFPKB
TAF
KPKB 171137Z 1712/1812 00000KT 1/4SM FG VV002
     FM171330 00000KT 6SM BR FEW040
     FM171400 00000KT P6SM FEW040
     FM172000 30004KT P6SM FEW040
     FM180400 30001KT 5SM BR FEW040
     FM180500 00000KT 1/4SM FG BKN002=

USA.gov is the U.S. government's official web portal to all federal, state and local government web resources and services.